^^
B2 Weather Station Historical Data
Daily Summary for December 5, 2017 Units:  English    Metric   Both
Daily Weekly Monthly Yearly Custom
  High: Low: Average:
Temperature: 46.6 °F 25.6 °F 33.1 °F
Dew Point: 39.8 °F 17.1 °F 22.5 °F
Humidity: 78% 53% 65%
Wind Speed: 33.4mph 1.2mph 18mph
Wind Gust: 33.4mph - -
Wind- - WSW
Pressure: 30.07 in 29.67 in -
Precipitation: 0.00 in    
Historical Graphs
 
 
Tabular Data for December 5, 2017
Time Temperature Dew Point Pressure Wind Wind Speed Wind Gust Humidity Rainfall Rate (Hourly) solar
00:01 46.6 °F 39.8 °F 29.67 in WSW 20.7 mph 20.7 mph 77% 0.00 in 0.0 W/m2
00:06 46.3 °F 39.8 °F 29.67 in WSW 16.1 mph 16.1 mph 78% 0.00 in 0.0 W/m2
00:11 46.1 °F 39.3 °F 29.67 in West 18.4 mph 18.4 mph 77% 0.00 in 0.0 W/m2
00:16 45.9 °F 38.8 °F 29.67 in WSW 25.3 mph 25.3 mph 76% 0.00 in 0.0 W/m2
00:21 45.6 °F 38.8 °F 29.68 in SW 12.7 mph 12.7 mph 77% 0.00 in 0.0 W/m2
00:26 45.2 °F 38.7 °F 29.68 in WSW 14.0 mph 14.0 mph 78% 0.00 in 0.0 W/m2
00:31 44.9 °F 38.1 °F 29.69 in WNW 23.0 mph 23.0 mph 77% 0.00 in 0.0 W/m2
00:36 44.6 °F 37.8 °F 29.69 in WSW 18.4 mph 18.4 mph 77% 0.00 in 0.0 W/m2
00:41 44.3 °F 37.5 °F 29.69 in SW 14.0 mph 14.0 mph 77% 0.00 in 0.0 W/m2
00:51 43.8 °F 37.1 °F 29.70 in West 24.2 mph 24.2 mph 77% 0.00 in 0.0 W/m2
00:56 43.7 °F 37.3 °F 29.70 in SW 17.3 mph 17.3 mph 78% 0.00 in 0.0 W/m2
01:01 43.6 °F 36.9 °F 29.70 in WNW 23.0 mph 23.0 mph 77% 0.00 in 0.0 W/m2
01:06 43.5 °F 36.8 °F 29.71 in WSW 19.6 mph 19.6 mph 77% 0.00 in 0.0 W/m2
01:11 43.4 °F 36.7 °F 29.71 in West 25.0 mph 25.0 mph 77% 0.00 in 0.0 W/m2
01:16 43.4 °F 36.3 °F 29.72 in West 23.0 mph 23.0 mph 76% 0.00 in 0.0 W/m2
01:21 43.4 °F 36.3 °F 29.72 in WSW 20.7 mph 20.7 mph 76% 0.00 in 0.0 W/m2
01:26 43.3 °F 36.2 °F 29.73 in WSW 25.3 mph 25.3 mph 76% 0.00 in 0.0 W/m2
01:31 43.2 °F 36.1 °F 29.74 in West 20.7 mph 20.7 mph 76% 0.00 in 0.0 W/m2
01:36 43.0 °F 35.6 °F 29.74 in WNW 21.9 mph 21.9 mph 75% 0.00 in 0.0 W/m2
01:41 42.6 °F 35.2 °F 29.75 in WSW 18.4 mph 18.4 mph 75% 0.00 in 0.0 W/m2
01:46 42.4 °F 34.7 °F 29.75 in West 24.2 mph 24.2 mph 74% 0.00 in 0.0 W/m2
01:51 42.2 °F 33.5 °F 29.75 in WNW 20.7 mph 20.7 mph 71% 0.00 in 0.0 W/m2
01:56 41.8 °F 32.7 °F 29.76 in WNW 28.8 mph 28.8 mph 70% 0.00 in 0.0 W/m2
02:01 41.5 °F 32.4 °F 29.76 in West 33.4 mph 33.4 mph 70% 0.00 in 0.0 W/m2
02:06 41.3 °F 32.6 °F 29.77 in WSW 22.0 mph 22.0 mph 71% 0.00 in 0.0 W/m2
02:11 41.3 °F 32.6 °F 29.77 in WSW 25.3 mph 25.3 mph 71% 0.00 in 0.0 W/m2
02:16 41.2 °F 32.5 °F 29.77 in WSW 21.9 mph 21.9 mph 71% 0.00 in 0.0 W/m2
02:21 41.0 °F 32.7 °F 29.77 in West 19.6 mph 19.6 mph 72% 0.00 in 0.0 W/m2
02:26 40.8 °F 32.5 °F 29.77 in WNW 26.5 mph 26.5 mph 72% 0.00 in 0.0 W/m2
02:31 40.6 °F 32.3 °F 29.78 in WSW 19.6 mph 19.6 mph 72% 0.00 in 0.0 W/m2
02:36 40.4 °F 32.4 °F 29.79 in West 21.9 mph 21.9 mph 73% 0.00 in 0.0 W/m2
02:41 40.2 °F 32.6 °F 29.78 in WSW 19.6 mph 19.6 mph 74% 0.00 in 0.0 W/m2
02:46 39.9 °F 32.6 °F 29.79 in SW 14.0 mph 14.0 mph 75% 0.00 in 0.0 W/m2
02:51 39.8 °F 32.2 °F 29.79 in WSW 15.0 mph 15.0 mph 74% 0.00 in 0.0 W/m2
02:56 39.6 °F 31.7 °F 29.79 in West 19.6 mph 19.6 mph 73% 0.00 in 0.0 W/m2
03:01 39.4 °F 31.8 °F 29.80 in WSW 12.7 mph 12.7 mph 74% 0.00 in 0.0 W/m2
03:06 39.1 °F 31.8 °F 29.81 in WSW 13.0 mph 13.0 mph 75% 0.00 in 0.0 W/m2
03:11 38.7 °F 31.8 °F 29.80 in SW 18.4 mph 18.4 mph 76% 0.00 in 0.0 W/m2
03:16 38.5 °F 31.6 °F 29.81 in WSW 15.0 mph 15.0 mph 76% 0.00 in 0.0 W/m2
03:21 38.3 °F 31.1 °F 29.81 in WSW 21.0 mph 21.0 mph 75% 0.00 in 0.0 W/m2
03:26 38.2 °F 31.0 °F 29.82 in WSW 15.0 mph 15.0 mph 75% 0.00 in 0.0 W/m2
03:31 38.0 °F 30.8 °F 29.82 in WSW 16.1 mph 16.1 mph 75% 0.00 in 0.0 W/m2
03:36 37.8 °F 30.6 °F 29.82 in WSW 16.1 mph 16.1 mph 75% 0.00 in 0.0 W/m2
03:41 37.4 °F 29.2 °F 29.82 in WSW 20.7 mph 20.7 mph 72% 0.00 in 0.0 W/m2
03:46 37.0 °F 28.8 °F 29.83 in WSW 20.0 mph 20.0 mph 72% 0.00 in 0.0 W/m2
03:51 36.6 °F 28.4 °F 29.83 in WSW 31.1 mph 31.1 mph 72% 0.00 in 0.0 W/m2
03:56 36.4 °F 28.6 °F 29.84 in WSW 24.2 mph 24.2 mph 73% 0.00 in 0.0 W/m2
04:01 36.2 °F 28.4 °F 29.84 in WSW 24.2 mph 24.2 mph 73% 0.00 in 0.0 W/m2
04:06 36.0 °F 28.2 °F 29.84 in WSW 18.4 mph 18.4 mph 73% 0.00 in 0.0 W/m2
04:11 35.9 °F 28.1 °F 29.85 in WSW 19.6 mph 19.6 mph 73% 0.00 in 0.0 W/m2
04:16 35.7 °F 28.2 °F 29.85 in WSW 19.6 mph 19.6 mph 74% 0.00 in 0.0 W/m2
04:21 35.7 °F 27.9 °F 29.85 in WSW 29.9 mph 29.9 mph 73% 0.00 in 0.0 W/m2
04:26 35.5 °F 28.0 °F 29.85 in WNW 17.3 mph 17.3 mph 74% 0.00 in 0.0 W/m2
04:31 35.5 °F 28.0 °F 29.85 in WSW 19.6 mph 19.6 mph 74% 0.00 in 0.0 W/m2
04:36 35.5 °F 28.0 °F 29.85 in SW 24.2 mph 24.2 mph 74% 0.00 in 0.0 W/m2
04:41 35.7 °F 28.2 °F 29.85 in WSW 15.0 mph 15.0 mph 74% 0.00 in 0.0 W/m2
04:46 35.8 °F 28.3 °F 29.85 in West 15.0 mph 15.0 mph 74% 0.00 in 0.0 W/m2
04:51 35.8 °F 28.3 °F 29.86 in West 20.7 mph 20.7 mph 74% 0.00 in 0.0 W/m2
04:56 35.8 °F 28.3 °F 29.86 in WSW 19.6 mph 19.6 mph 74% 0.00 in 0.0 W/m2
05:01 35.8 °F 28.6 °F 29.86 in WSW 19.6 mph 19.6 mph 75% 0.00 in 0.0 W/m2
05:06 35.8 °F 28.6 °F 29.87 in West 18.4 mph 18.4 mph 75% 0.00 in 0.0 W/m2
05:11 35.8 °F 28.6 °F 29.86 in WSW 19.6 mph 19.6 mph 75% 0.00 in 0.0 W/m2
05:16 35.8 °F 28.6 °F 29.86 in SW 16.1 mph 16.1 mph 75% 0.00 in 0.0 W/m2
05:21 35.8 °F 29.0 °F 29.87 in SW 21.9 mph 21.9 mph 76% 0.00 in 0.0 W/m2
05:26 35.7 °F 28.9 °F 29.87 in WSW 26.5 mph 26.5 mph 76% 0.00 in 0.0 W/m2
05:32 35.3 °F 27.8 °F 29.88 in WNW 21.9 mph 21.9 mph 74% 0.00 in 0.0 W/m2
05:37 35.0 °F 27.9 °F 29.88 in WSW 21.9 mph 21.9 mph 75% 0.00 in 0.0 W/m2
05:42 34.8 °F 27.7 °F 29.89 in WNW 26.5 mph 26.5 mph 75% 0.00 in 0.0 W/m2
05:47 34.7 °F 27.9 °F 29.89 in WSW 27.6 mph 27.6 mph 76% 0.00 in 0.0 W/m2
05:52 34.6 °F 27.5 °F 29.89 in WSW 19.6 mph 19.6 mph 75% 0.00 in 0.0 W/m2
05:57 34.6 °F 27.5 °F 29.89 in West 25.3 mph 25.3 mph 75% 0.00 in 0.0 W/m2
06:02 34.5 °F 27.4 °F 29.89 in WSW 19.6 mph 19.6 mph 75% 0.00 in 0.0 W/m2
06:07 34.4 °F 27.6 °F 29.90 in West 21.9 mph 21.9 mph 76% 0.00 in 0.0 W/m2
06:12 34.4 °F 27.6 °F 29.90 in SW 21.9 mph 21.9 mph 76% 0.00 in 0.0 W/m2
06:17 34.4 °F 27.6 °F 29.90 in West 18.4 mph 18.4 mph 76% 0.00 in 0.0 W/m2
06:22 34.3 °F 27.5 °F 29.90 in WSW 21.9 mph 21.9 mph 76% 0.00 in 0.0 W/m2
06:27 34.3 °F 27.5 °F 29.90 in WSW 19.6 mph 19.6 mph 76% 0.00 in 0.0 W/m2
06:32 34.3 °F 27.5 °F 29.90 in SW 25.3 mph 25.3 mph 76% 0.00 in 0.0 W/m2
06:37 34.2 °F 27.4 °F 29.90 in SW 20.7 mph 20.7 mph 76% 0.00 in 0.0 W/m2
06:42 34.1 °F 27.3 °F 29.91 in WSW 16.1 mph 16.1 mph 76% 0.00 in 0.0 W/m2
06:47 34.0 °F 27.2 °F 29.91 in WSW 18.4 mph 18.4 mph 76% 0.00 in 0.0 W/m2
06:52 34.0 °F 27.5 °F 29.92 in WSW 11.5 mph 11.5 mph 77% 0.00 in 0.0 W/m2
06:57 33.9 °F 27.1 °F 29.91 in WSW 25.3 mph 25.3 mph 76% 0.00 in 0.0 W/m2
07:02 33.8 °F 27.0 °F 29.92 in WSW 21.9 mph 21.9 mph 76% 0.00 in 0.0 W/m2
07:07 33.8 °F 27.4 °F 29.92 in WSW 19.6 mph 19.6 mph 77% 0.00 in 0.0 W/m2
07:12 33.8 °F 27.4 °F 29.92 in WSW 26.5 mph 26.5 mph 77% 0.00 in 0.0 W/m2
07:17 33.8 °F 27.4 °F 29.92 in West 20.7 mph 20.7 mph 77% 0.00 in 0.0 W/m2
07:22 33.7 °F 27.3 °F 29.92 in SW 23.0 mph 23.0 mph 77% 0.00 in 0.0 W/m2
07:27 33.4 °F 26.6 °F 29.93 in SW 19.6 mph 19.6 mph 76% 0.00 in 0.0 W/m2
07:32 32.9 °F 25.5 °F 29.93 in WSW 20.7 mph 20.7 mph 74% 0.00 in 5.0 W/m2
07:37 32.1 °F 24.1 °F 29.94 in West 19.6 mph 19.6 mph 72% 0.00 in 11.0 W/m2
07:42 31.4 °F 23.4 °F 29.94 in WSW 20.7 mph 20.7 mph 72% 0.00 in 19.0 W/m2
07:47 31.0 °F 22.7 °F 29.94 in WNW 20.7 mph 20.7 mph 71% 0.00 in 33.0 W/m2
07:52 30.7 °F 22.1 °F 29.94 in WSW 18.4 mph 18.4 mph 70% 0.00 in 58.0 W/m2
07:57 30.6 °F 21.6 °F 29.95 in WSW 24.0 mph 24.0 mph 69% 0.00 in 63.0 W/m2
08:02 30.6 °F 21.3 °F 29.95 in WSW 25.3 mph 25.3 mph 68% 0.00 in 72.0 W/m2
08:07 30.6 °F 20.9 °F 29.95 in WSW 12.7 mph 12.7 mph 67% 0.00 in 105.0 W/m2
08:12 30.8 °F 21.1 °F 29.95 in SSW 19.6 mph 19.6 mph 67% 0.00 in 137.0 W/m2
08:17 30.8 °F 20.4 °F 29.95 in WSW 23.0 mph 23.0 mph 65% 0.00 in 107.0 W/m2
08:22 30.8 °F 20.0 °F 29.95 in West 23.0 mph 23.0 mph 64% 0.00 in 111.0 W/m2
08:27 30.7 °F 19.2 °F 29.95 in West 23.0 mph 23.0 mph 62% 0.00 in 98.0 W/m2
08:32 30.7 °F 19.6 °F 29.95 in SW 22.0 mph 22.0 mph 63% 0.00 in 139.0 W/m2
08:37 30.7 °F 19.6 °F 29.95 in West 32.2 mph 32.2 mph 63% 0.00 in 127.0 W/m2
08:42 30.8 °F 19.7 °F 29.96 in WSW 21.9 mph 21.9 mph 63% 0.00 in 151.0 W/m2
08:47 31.0 °F 19.5 °F 29.96 in WSW 21.9 mph 21.9 mph 62% 0.00 in 206.0 W/m2
08:52 31.2 °F 19.3 °F 29.96 in WSW 24.2 mph 24.2 mph 61% 0.00 in 352.0 W/m2
08:57 31.4 °F 19.5 °F 29.96 in West 26.5 mph 26.5 mph 61% 0.00 in 241.0 W/m2
09:02 31.3 °F 19.4 °F 29.97 in SW 21.9 mph 21.9 mph 61% 0.00 in 171.0 W/m2
09:12 30.8 °F 18.9 °F 29.97 in WSW 16.1 mph 16.1 mph 61% 0.00 in 128.0 W/m2
09:17 30.8 °F 18.9 °F 29.97 in WSW 17.3 mph 17.3 mph 61% 0.00 in 118.0 W/m2
09:22 30.7 °F 18.8 °F 29.98 in WSW 18.4 mph 18.4 mph 61% 0.00 in 104.0 W/m2
09:27 30.5 °F 18.6 °F 29.98 in West 19.6 mph 19.6 mph 61% 0.00 in 120.0 W/m2
09:32 30.5 °F 18.6 °F 29.98 in West 19.6 mph 19.6 mph 61% 0.00 in 190.0 W/m2
09:37 30.6 °F 18.7 °F 29.99 in WSW 16.1 mph 16.1 mph 61% 0.00 in 148.0 W/m2
09:42 30.5 °F 18.6 °F 29.99 in WSW 19.6 mph 19.6 mph 61% 0.00 in 141.0 W/m2
09:47 30.5 °F 18.3 °F 30.00 in WSW 19.6 mph 19.6 mph 60% 0.00 in 146.0 W/m2
09:51 30.5 °F 18.3 °F 30.00 in WSW 19.6 mph 19.6 mph 60% 0.00 in 155.0 W/m2
09:56 30.7 °F 18.4 °F 30.01 in West 21.9 mph 21.9 mph 60% 0.00 in 148.0 W/m2
10:01 30.6 °F 18.0 °F 30.00 in SW 24.2 mph 24.2 mph 59% 0.00 in 172.0 W/m2
10:06 30.6 °F 18.0 °F 30.00 in West 18.4 mph 18.4 mph 59% 0.00 in 158.0 W/m2
10:11 30.7 °F 18.1 °F 30.00 in West 16.1 mph 16.1 mph 59% 0.00 in 193.0 W/m2
10:16 30.8 °F 18.1 °F 30.00 in West 19.6 mph 19.6 mph 59% 0.00 in 218.0 W/m2
10:21 30.9 °F 18.2 °F 30.00 in West 20.7 mph 20.7 mph 59% 0.00 in 183.0 W/m2
10:26 31.0 °F 18.3 °F 29.99 in WNW 19.6 mph 19.6 mph 59% 0.00 in 200.0 W/m2
10:31 31.0 °F 17.5 °F 29.99 in WSW 28.8 mph 28.8 mph 57% 0.00 in 190.0 W/m2
10:36 30.9 °F 17.8 °F 29.99 in WSW 20.7 mph 20.7 mph 58% 0.00 in 192.0 W/m2
10:41 31.2 °F 18.1 °F 29.99 in West 24.2 mph 24.2 mph 58% 0.00 in 230.0 W/m2
10:46 31.3 °F 17.8 °F 29.99 in West 20.0 mph 20.0 mph 57% 0.00 in 216.0 W/m2
10:51 31.5 °F 18.0 °F 29.98 in WSW 23.0 mph 23.0 mph 57% 0.00 in 216.0 W/m2
10:56 31.5 °F 17.6 °F 29.98 in West 25.3 mph 25.3 mph 56% 0.00 in 206.0 W/m2
11:01 31.5 °F 17.6 °F 29.98 in West 17.3 mph 17.3 mph 56% 0.00 in 200.0 W/m2
11:06 31.5 °F 17.2 °F 29.98 in WSW 26.5 mph 26.5 mph 55% 0.00 in 178.0 W/m2
11:11 31.4 °F 17.1 °F 29.98 in WSW 21.9 mph 21.9 mph 55% 0.00 in 306.0 W/m2
11:16 31.6 °F 17.7 °F 29.98 in WSW 19.6 mph 19.6 mph 56% 0.00 in 204.0 W/m2
11:21 32.0 °F 17.6 °F 29.98 in West 24.2 mph 24.2 mph 55% 0.00 in 281.0 W/m2
11:26 32.1 °F 17.3 °F 29.98 in West 17.3 mph 17.3 mph 54% 0.00 in 200.0 W/m2
11:31 32.1 °F 17.7 °F 29.98 in West 21.9 mph 21.9 mph 55% 0.00 in 202.0 W/m2
11:36 32.3 °F 17.9 °F 29.98 in SW 19.6 mph 19.6 mph 55% 0.00 in 204.0 W/m2
11:41 32.3 °F 17.5 °F 29.99 in WSW 23.0 mph 23.0 mph 54% 0.00 in 216.0 W/m2
11:46 32.4 °F 18.0 °F 29.98 in WNW 26.5 mph 26.5 mph 55% 0.00 in 218.0 W/m2
11:51 32.4 °F 17.6 °F 29.98 in West 24.2 mph 24.2 mph 54% 0.00 in 260.0 W/m2
11:56 32.5 °F 17.7 °F 29.98 in WSW 26.5 mph 26.5 mph 54% 0.00 in 232.0 W/m2
12:01 32.4 °F 18.0 °F 29.98 in SW 19.6 mph 19.6 mph 55% 0.00 in 236.0 W/m2
12:06 32.6 °F 18.6 °F 29.98 in SW 19.0 mph 19.0 mph 56% 0.00 in 246.0 W/m2
12:07 32.7 °F 18.7 °F 29.98 in West 21.9 mph 21.9 mph 56% 0.00 in 455.0 W/m2
12:12 33.0 °F 18.6 °F 29.98 in West 20.7 mph 20.7 mph 55% 0.00 in 452.0 W/m2
12:17 33.7 °F 19.7 °F 29.98 in SW 19.6 mph 19.6 mph 56% 0.00 in 534.0 W/m2
12:22 34.3 °F 19.4 °F 29.97 in WSW 28.8 mph 28.8 mph 54% 0.00 in 218.0 W/m2
12:27 34.1 °F 18.7 °F 29.98 in WSW 24.0 mph 24.0 mph 53% 0.00 in 199.0 W/m2
12:32 33.9 °F 19.4 °F 29.98 in WSW 15.0 mph 15.0 mph 55% 0.00 in 214.0 W/m2
12:37 33.9 °F 18.6 °F 29.98 in West 20.7 mph 20.7 mph 53% 0.00 in 193.0 W/m2
12:42 33.9 °F 19.0 °F 29.98 in WSW 16.1 mph 16.1 mph 54% 0.00 in 169.0 W/m2
12:47 33.9 °F 19.4 °F 29.98 in WNW 19.6 mph 19.6 mph 55% 0.00 in 225.0 W/m2
12:52 33.8 °F 18.5 °F 29.97 in WNW 19.6 mph 19.6 mph 53% 0.00 in 113.0 W/m2
12:57 33.6 °F 18.7 °F 29.98 in WSW 33.4 mph 33.4 mph 54% 0.00 in 116.0 W/m2
13:02 33.3 °F 18.9 °F 29.98 in SW 25.3 mph 25.3 mph 55% 0.00 in 125.0 W/m2
13:07 33.3 °F 19.3 °F 29.98 in WSW 21.9 mph 21.9 mph 56% 0.00 in 179.0 W/m2
13:12 33.4 °F 19.8 °F 29.97 in WSW 23.0 mph 23.0 mph 57% 0.00 in 144.0 W/m2
13:17 33.4 °F 19.4 °F 29.97 in WSW 29.9 mph 29.9 mph 56% 0.00 in 153.0 W/m2
13:22 33.3 °F 19.3 °F 29.97 in WSW 23.0 mph 23.0 mph 56% 0.00 in 139.0 W/m2
13:27 33.3 °F 19.7 °F 29.97 in SW 26.5 mph 26.5 mph 57% 0.00 in 118.0 W/m2
13:32 33.4 °F 19.8 °F 29.97 in WSW 25.3 mph 25.3 mph 57% 0.00 in 139.0 W/m2
13:37 33.3 °F 19.7 °F 29.97 in WSW 23.0 mph 23.0 mph 57% 0.00 in 114.0 W/m2
13:42 33.3 °F 20.1 °F 29.97 in WSW 23.0 mph 23.0 mph 58% 0.00 in 113.0 W/m2
13:47 33.3 °F 20.1 °F 29.97 in WSW 23.0 mph 23.0 mph 58% 0.00 in 130.0 W/m2
13:52 33.3 °F 20.1 °F 29.97 in West 16.1 mph 16.1 mph 58% 0.00 in 146.0 W/m2
13:57 33.4 °F 20.2 °F 29.97 in West 25.3 mph 25.3 mph 58% 0.00 in 97.0 W/m2
14:02 33.4 °F 20.2 °F 29.98 in WSW 24.2 mph 24.2 mph 58% 0.00 in 60.0 W/m2
14:07 33.4 °F 20.6 °F 29.98 in WSW 15.0 mph 15.0 mph 59% 0.00 in 72.0 W/m2
14:12 33.5 °F 20.7 °F 29.98 in WSW 14.0 mph 14.0 mph 59% 0.00 in 60.0 W/m2
14:17 33.6 °F 20.8 °F 29.97 in WSW 19.6 mph 19.6 mph 59% 0.00 in 54.0 W/m2
14:22 33.6 °F 20.4 °F 29.97 in WSW 19.6 mph 19.6 mph 58% 0.00 in 63.0 W/m2
14:27 33.6 °F 20.8 °F 29.97 in SSW 25.3 mph 25.3 mph 59% 0.00 in 53.0 W/m2
14:32 33.5 °F 21.1 °F 29.98 in WSW 23.0 mph 23.0 mph 60% 0.00 in 49.0 W/m2
14:37 33.4 °F 21.4 °F 29.98 in SW 27.6 mph 27.6 mph 61% 0.00 in 60.0 W/m2
14:42 33.3 °F 21.7 °F 29.98 in West 17.3 mph 17.3 mph 62% 0.00 in 70.0 W/m2
14:47 33.4 °F 21.4 °F 29.98 in West 17.3 mph 17.3 mph 61% 0.00 in 90.0 W/m2
14:52 33.6 °F 21.2 °F 29.97 in West 18.4 mph 18.4 mph 60% 0.00 in 120.0 W/m2
14:57 33.9 °F 21.9 °F 29.97 in SW 15.0 mph 15.0 mph 61% 0.00 in 104.0 W/m2
15:02 34.1 °F 19.6 °F 29.97 in West 26.5 mph 26.5 mph 55% 0.00 in 65.0 W/m2
15:07 34.2 °F 19.3 °F 29.97 in WSW 19.6 mph 19.6 mph 54% 0.00 in 51.0 W/m2
15:12 34.2 °F 19.3 °F 29.97 in SW 26.5 mph 26.5 mph 54% 0.00 in 125.0 W/m2
15:18 34.1 °F 19.2 °F 29.98 in West 18.0 mph 18.0 mph 54% 0.00 in 65.0 W/m2
15:23 33.9 °F 19.0 °F 29.98 in West 19.6 mph 19.6 mph 54% 0.00 in 42.0 W/m2
15:28 33.5 °F 19.0 °F 29.98 in WNW 23.0 mph 23.0 mph 55% 0.00 in 35.0 W/m2
15:33 33.2 °F 18.8 °F 29.98 in West 24.2 mph 24.2 mph 55% 0.00 in 25.0 W/m2
15:38 33.0 °F 18.6 °F 29.98 in WNW 17.3 mph 17.3 mph 55% 0.00 in 33.0 W/m2
15:43 32.9 °F 18.5 °F 29.99 in WSW 19.6 mph 19.6 mph 55% 0.00 in 28.0 W/m2
15:48 32.8 °F 18.4 °F 29.99 in West 19.6 mph 19.6 mph 55% 0.00 in 19.0 W/m2
15:53 32.8 °F 18.8 °F 29.98 in WSW 18.4 mph 18.4 mph 56% 0.00 in 18.0 W/m2
15:58 32.7 °F 18.7 °F 29.99 in West 19.6 mph 19.6 mph 56% 0.00 in 14.0 W/m2
16:03 32.6 °F 18.6 °F 29.99 in WSW 23.0 mph 23.0 mph 56% 0.00 in 12.0 W/m2
16:08 32.6 °F 18.6 °F 30.00 in WSW 26.5 mph 26.5 mph 56% 0.00 in 11.0 W/m2
16:13 32.4 °F 18.4 °F 30.00 in WSW 18.4 mph 18.4 mph 56% 0.00 in 9.0 W/m2
16:18 32.2 °F 18.7 °F 30.00 in West 17.3 mph 17.3 mph 57% 0.00 in 7.0 W/m2
16:23 32.0 °F 18.5 °F 30.01 in West 11.5 mph 11.5 mph 57% 0.00 in 0.0 W/m2
16:28 31.8 °F 18.7 °F 30.00 in WSW 20.7 mph 20.7 mph 58% 0.00 in 0.0 W/m2
16:33 31.7 °F 19.0 °F 30.01 in West 20.7 mph 20.7 mph 59% 0.00 in 0.0 W/m2
16:38 31.6 °F 18.9 °F 30.01 in West 19.6 mph 19.6 mph 59% 0.00 in 0.0 W/m2
16:43 31.5 °F 18.8 °F 30.01 in West 15.0 mph 15.0 mph 59% 0.00 in 0.0 W/m2
16:48 31.4 °F 18.3 °F 30.01 in WSW 19.6 mph 19.6 mph 58% 0.00 in 0.0 W/m2
16:53 31.5 °F 18.0 °F 30.01 in WSW 19.6 mph 19.6 mph 57% 0.00 in 0.0 W/m2
16:58 31.3 °F 17.8 °F 30.02 in West 11.5 mph 11.5 mph 57% 0.00 in 0.0 W/m2
17:03 31.3 °F 17.8 °F 30.02 in WSW 22.0 mph 22.0 mph 57% 0.00 in 0.0 W/m2
17:08 31.2 °F 17.7 °F 30.02 in WSW 19.6 mph 19.6 mph 57% 0.00 in 0.0 W/m2
17:13 31.1 °F 17.6 °F 30.02 in WSW 15.0 mph 15.0 mph 57% 0.00 in 0.0 W/m2
17:18 31.0 °F 17.5 °F 30.02 in WSW 19.6 mph 19.6 mph 57% 0.00 in 0.0 W/m2
17:23 31.0 °F 17.5 °F 30.03 in West 18.4 mph 18.4 mph 57% 0.00 in 0.0 W/m2
17:28 30.9 °F 17.4 °F 30.03 in West 11.5 mph 11.5 mph 57% 0.00 in 0.0 W/m2
17:33 30.7 °F 17.7 °F 30.03 in WSW 13.0 mph 13.0 mph 58% 0.00 in 0.0 W/m2
17:38 30.6 °F 17.6 °F 30.03 in WSW 12.7 mph 12.7 mph 58% 0.00 in 0.0 W/m2
17:43 30.5 °F 17.5 °F 30.03 in WSW 13.8 mph 13.8 mph 58% 0.00 in 0.0 W/m2
17:53 30.5 °F 17.5 °F 30.03 in WNW 17.0 mph 17.0 mph 58% 0.00 in 0.0 W/m2
17:58 30.4 °F 17.4 °F 30.03 in WSW 16.1 mph 16.1 mph 58% 0.00 in 0.0 W/m2
18:03 30.5 °F 17.5 °F 30.04 in West 13.8 mph 13.8 mph 58% 0.00 in 0.0 W/m2
18:08 30.4 °F 17.4 °F 30.04 in West 17.3 mph 17.3 mph 58% 0.00 in 0.0 W/m2
18:13 30.3 °F 17.3 °F 30.04 in WSW 11.5 mph 11.5 mph 58% 0.00 in 0.0 W/m2
18:18 30.2 °F 17.6 °F 30.03 in WSW 12.7 mph 12.7 mph 59% 0.00 in 0.0 W/m2
18:28 30.0 °F 17.4 °F 30.04 in WSW 13.0 mph 13.0 mph 59% 0.00 in 0.0 W/m2
18:33 29.9 °F 17.7 °F 30.04 in WSW 11.5 mph 11.5 mph 60% 0.00 in 0.0 W/m2
18:38 29.7 °F 17.5 °F 30.05 in WSW 12.7 mph 12.7 mph 60% 0.00 in 0.0 W/m2
18:43 29.7 °F 17.5 °F 30.04 in WSW 13.8 mph 13.8 mph 60% 0.00 in 0.0 W/m2
18:48 29.7 °F 17.5 °F 30.05 in WSW 19.6 mph 19.6 mph 60% 0.00 in 0.0 W/m2
18:53 29.7 °F 17.9 °F 30.05 in WSW 16.1 mph 16.1 mph 61% 0.00 in 0.0 W/m2
18:58 29.6 °F 17.8 °F 30.05 in WSW 13.8 mph 13.8 mph 61% 0.00 in 0.0 W/m2
19:03 29.7 °F 17.9 °F 30.05 in WSW 12.0 mph 12.0 mph 61% 0.00 in 0.0 W/m2
19:08 29.7 °F 17.5 °F 30.05 in WSW 10.0 mph 10.0 mph 60% 0.00 in 0.0 W/m2
19:13 29.6 °F 17.4 °F 30.05 in WSW 10.4 mph 10.4 mph 60% 0.00 in 0.0 W/m2
19:18 29.4 °F 17.6 °F 30.06 in WSW 11.5 mph 11.5 mph 61% 0.00 in 0.0 W/m2
19:23 29.4 °F 17.6 °F 30.06 in WSW 8.1 mph 8.1 mph 61% 0.00 in 0.0 W/m2
19:28 29.3 °F 17.9 °F 30.06 in WSW 11.5 mph 11.5 mph 62% 0.00 in 0.0 W/m2
19:33 29.2 °F 17.8 °F 30.06 in WSW 11.5 mph 11.5 mph 62% 0.00 in 0.0 W/m2
19:38 29.2 °F 17.8 °F 30.06 in WSW 12.0 mph 12.0 mph 62% 0.00 in 0.0 W/m2
19:43 29.2 °F 17.8 °F 30.06 in WSW 11.5 mph 11.5 mph 62% 0.00 in 0.0 W/m2
19:48 29.3 °F 17.9 °F 30.06 in WSW 15.0 mph 15.0 mph 62% 0.00 in 0.0 W/m2
19:53 29.2 °F 17.8 °F 30.06 in WSW 9.2 mph 9.2 mph 62% 0.00 in 0.0 W/m2
19:58 29.1 °F 17.7 °F 30.06 in WSW 11.5 mph 11.5 mph 62% 0.00 in 0.0 W/m2
20:03 29.1 °F 17.7 °F 30.06 in WSW 13.8 mph 13.8 mph 62% 0.00 in 0.0 W/m2
20:08 29.1 °F 17.7 °F 30.06 in WSW 13.8 mph 13.8 mph 62% 0.00 in 0.0 W/m2
20:13 29.0 °F 17.6 °F 30.06 in WSW 13.8 mph 13.8 mph 62% 0.00 in 0.0 W/m2
20:18 28.9 °F 17.5 °F 30.06 in WSW 10.4 mph 10.4 mph 62% 0.00 in 0.0 W/m2
20:23 28.9 °F 17.5 °F 30.06 in WSW 11.5 mph 11.5 mph 62% 0.00 in 0.0 W/m2
20:28 28.9 °F 17.5 °F 30.06 in WSW 13.8 mph 13.8 mph 62% 0.00 in 0.0 W/m2
20:33 28.8 °F 17.4 °F 30.06 in WSW 11.5 mph 11.5 mph 62% 0.00 in 0.0 W/m2
20:38 28.8 °F 17.4 °F 30.07 in WSW 11.5 mph 11.5 mph 62% 0.00 in 0.0 W/m2
20:43 28.8 °F 17.4 °F 30.07 in WSW 15.0 mph 15.0 mph 62% 0.00 in 0.0 W/m2
20:48 28.8 °F 17.4 °F 30.06 in WSW 11.5 mph 11.5 mph 62% 0.00 in 0.0 W/m2
20:53 28.8 °F 17.4 °F 30.06 in WSW 15.0 mph 15.0 mph 62% 0.00 in 0.0 W/m2
20:58 28.8 °F 17.4 °F 30.07 in WSW 15.0 mph 15.0 mph 62% 0.00 in 0.0 W/m2
21:03 28.7 °F 17.7 °F 30.07 in WSW 10.0 mph 10.0 mph 63% 0.00 in 0.0 W/m2
21:08 28.6 °F 17.6 °F 30.07 in WSW 11.5 mph 11.5 mph 63% 0.00 in 0.0 W/m2
21:13 28.4 °F 17.4 °F 30.07 in WSW 11.5 mph 11.5 mph 63% 0.00 in 0.0 W/m2
21:18 28.4 °F 17.8 °F 30.07 in WSW 8.1 mph 8.1 mph 64% 0.00 in 0.0 W/m2
21:23 28.4 °F 17.8 °F 30.07 in WSW 9.2 mph 9.2 mph 64% 0.00 in 0.0 W/m2
21:28 28.3 °F 17.7 °F 30.07 in WSW 9.2 mph 9.2 mph 64% 0.00 in 0.0 W/m2
21:34 28.1 °F 17.8 °F 30.07 in WSW 8.0 mph 8.0 mph 65% 0.00 in 0.0 W/m2
21:39 27.9 °F 17.6 °F 30.07 in WSW 10.4 mph 10.4 mph 65% 0.00 in 0.0 W/m2
21:44 27.7 °F 17.8 °F 30.07 in WSW 5.8 mph 5.8 mph 66% 0.00 in 0.0 W/m2
21:49 27.5 °F 17.6 °F 30.07 in WSW 4.6 mph 4.6 mph 66% 0.00 in 0.0 W/m2
21:54 27.5 °F 17.6 °F 30.07 in WSW 5.8 mph 5.8 mph 66% 0.00 in 0.0 W/m2
21:59 27.4 °F 17.5 °F 30.07 in WSW 5.8 mph 5.8 mph 66% 0.00 in 0.0 W/m2
22:04 27.4 °F 17.5 °F 30.06 in WSW 10.4 mph 10.4 mph 66% 0.00 in 0.0 W/m2
22:09 27.3 °F 17.4 °F 30.06 in WSW 8.1 mph 8.1 mph 66% 0.00 in 0.0 W/m2
22:14 27.4 °F 17.5 °F 30.07 in WSW 9.2 mph 9.2 mph 66% 0.00 in 0.0 W/m2
22:19 27.4 °F 17.5 °F 30.07 in WSW 8.1 mph 8.1 mph 66% 0.00 in 0.0 W/m2
22:24 27.5 °F 17.6 °F 30.07 in WSW 9.2 mph 9.2 mph 66% 0.00 in 0.0 W/m2
22:29 27.6 °F 17.4 °F 30.06 in WSW 9.2 mph 9.2 mph 65% 0.00 in 0.0 W/m2
22:34 27.6 °F 17.4 °F 30.06 in WSW 8.1 mph 8.1 mph 65% 0.00 in 0.0 W/m2
22:39 27.8 °F 17.6 °F 30.06 in WSW 8.1 mph 8.1 mph 65% 0.00 in 0.0 W/m2
22:44 27.7 °F 17.5 °F 30.06 in WSW 1.2 mph 1.2 mph 65% 0.00 in 0.0 W/m2
22:49 27.5 °F 17.3 °F 30.07 in WSW 3.5 mph 3.5 mph 65% 0.00 in 0.0 W/m2
22:54 27.2 °F 17.3 °F 30.07 in WSW 5.8 mph 5.8 mph 66% 0.00 in 0.0 W/m2
22:59 27.1 °F 17.2 °F 30.07 in WSW 4.6 mph 4.6 mph 66% 0.00 in 0.0 W/m2
23:04 27.0 °F 17.5 °F 30.06 in WSW 9.2 mph 9.2 mph 67% 0.00 in 0.0 W/m2
23:09 26.9 °F 17.4 °F 30.07 in WSW 3.5 mph 3.5 mph 67% 0.00 in 0.0 W/m2
23:14 26.7 °F 17.2 °F 30.07 in WSW 4.0 mph 4.0 mph 67% 0.00 in 0.0 W/m2
23:19 26.3 °F 17.2 °F 30.07 in WSW 7.0 mph 7.0 mph 68% 0.00 in 0.0 W/m2
23:24 26.0 °F 17.2 °F 30.07 in WSW 8.1 mph 8.1 mph 69% 0.00 in 0.0 W/m2
23:29 25.7 °F 17.3 °F 30.07 in WSW 4.6 mph 4.6 mph 70% 0.00 in 0.0 W/m2
23:34 25.6 °F 17.2 °F 30.07 in WSW 9.2 mph 9.2 mph 70% 0.00 in 0.0 W/m2
23:39 25.7 °F 17.3 °F 30.07 in WSW 5.8 mph 5.8 mph 70% 0.00 in 0.0 W/m2
23:44 25.7 °F 17.3 °F 30.06 in WSW 4.6 mph 4.6 mph 70% 0.00 in 0.0 W/m2
23:49 25.8 °F 17.4 °F 30.06 in WSW 5.8 mph 5.8 mph 70% 0.00 in 0.0 W/m2
23:54 25.9 °F 17.8 °F 30.06 in WSW 5.8 mph 5.8 mph 71% 0.00 in 0.0 W/m2
23:59 25.9 °F 17.8 °F 30.06 in WSW 4.6 mph 4.6 mph 71% 0.00 in 0.0 W/m2
Bourbonnais, Illinois, USA
Compliments of Weather Underground - 4 mb